sensor_id;sensor_type;location;lat;lon;timestamp;P1;durP1;ratioP1;P2;durP2;ratioP2
3708;SDS011;1870;53.996;10.784;2023-09-12T00:00:55;33.00;;;30.00;;
3708;SDS011;1870;53.996;10.784;2023-09-12T00:03:22;33.77;;;30.90;;
3708;SDS011;1870;53.996;10.784;2023-09-12T00:05:52;38.57;;;35.40;;
3708;SDS011;1870;53.996;10.784;2023-09-12T00:08:17;38.87;;;35.63;;
3708;SDS011;1870;53.996;10.784;2023-09-12T00:10:43;37.53;;;33.87;;
3708;SDS011;1870;53.996;10.784;2023-09-12T00:13:09;39.00;;;35.83;;
3708;SDS011;1870;53.996;10.784;2023-09-12T00:15:34;33.63;;;30.73;;
3708;SDS011;1870;53.996;10.784;2023-09-12T00:18:00;32.90;;;29.90;;
3708;SDS011;1870;53.996;10.784;2023-09-12T00:20:25;31.07;;;28.00;;
3708;SDS011;1870;53.996;10.784;2023-09-12T00:22:51;32.30;;;29.00;;
3708;SDS011;1870;53.996;10.784;2023-09-12T00:25:19;30.20;;;27.33;;
3708;SDS011;1870;53.996;10.784;2023-09-12T00:27:48;31.47;;;28.17;;
3708;SDS011;1870;53.996;10.784;2023-09-12T00:30:14;32.97;;;29.67;;
3708;SDS011;1870;53.996;10.784;2023-09-12T00:32:40;31.67;;;28.93;;
3708;SDS011;1870;53.996;10.784;2023-09-12T00:35:06;29.70;;;27.20;;
3708;SDS011;1870;53.996;10.784;2023-09-12T00:37:32;30.43;;;27.93;;
3708;SDS011;1870;53.996;10.784;2023-09-12T00:39:58;30.27;;;27.40;;
3708;SDS011;1870;53.996;10.784;2023-09-12T00:42:26;28.60;;;26.10;;
3708;SDS011;1870;53.996;10.784;2023-09-12T00:44:52;30.57;;;27.97;;
3708;SDS011;1870;53.996;10.784;2023-09-12T00:47:18;35.23;;;31.47;;
3708;SDS011;1870;53.996;10.784;2023-09-12T00:49:45;37.47;;;33.60;;
3708;SDS011;1870;53.996;10.784;2023-09-12T00:52:12;36.87;;;32.87;;
3708;SDS011;1870;53.996;10.784;2023-09-12T00:54:39;40.37;;;36.20;;
3708;SDS011;1870;53.996;10.784;2023-09-12T00:57:05;37.40;;;32.57;;
3708;SDS011;1870;53.996;10.784;2023-09-12T00:59:31;45.33;;;35.87;;
3708;SDS011;1870;53.996;10.784;2023-09-12T01:01:57;43.93;;;39.67;;
3708;SDS011;1870;53.996;10.784;2023-09-12T01:04:24;49.00;;;44.77;;
3708;SDS011;1870;53.996;10.784;2023-09-12T01:06:51;52.20;;;46.80;;
3708;SDS011;1870;53.996;10.784;2023-09-12T01:09:17;52.10;;;47.40;;
3708;SDS011;1870;53.996;10.784;2023-09-12T01:11:43;50.63;;;45.97;;
3708;SDS011;1870;53.996;10.784;2023-09-12T01:14:09;52.57;;;47.67;;
3708;SDS011;1870;53.996;10.784;2023-09-12T01:16:34;48.57;;;43.67;;
3708;SDS011;1870;53.996;10.784;2023-09-12T01:19:00;48.90;;;44.10;;
3708;SDS011;1870;53.996;10.784;2023-09-12T01:29:24;47.60;;;43.03;;
3708;SDS011;1870;53.996;10.784;2023-09-12T01:31:51;49.87;;;44.80;;
3708;SDS011;1870;53.996;10.784;2023-09-12T01:34:18;51.23;;;45.93;;
3708;SDS011;1870;53.996;10.784;2023-09-12T01:36:44;50.13;;;45.30;;
3708;SDS011;1870;53.996;10.784;2023-09-12T01:39:10;55.40;;;49.93;;
3708;SDS011;1870;53.996;10.784;2023-09-12T01:41:39;52.03;;;46.73;;
3708;SDS011;1870;53.996;10.784;2023-09-12T01:44:08;52.93;;;47.60;;
3708;SDS011;1870;53.996;10.784;2023-09-12T01:46:35;57.70;;;50.90;;
3708;SDS011;1870;53.996;10.784;2023-09-12T01:49:02;58.20;;;49.23;;
3708;SDS011;1870;53.996;10.784;2023-09-12T01:51:30;57.50;;;51.20;;
3708;SDS011;1870;53.996;10.784;2023-09-12T01:53:56;60.37;;;52.70;;
3708;SDS011;1870;53.996;10.784;2023-09-12T01:56:23;65.37;;;54.77;;
3708;SDS011;1870;53.996;10.784;2023-09-12T01:58:50;70.07;;;57.07;;
3708;SDS011;1870;53.996;10.784;2023-09-12T02:01:16;69.73;;;56.67;;
3708;SDS011;1870;53.996;10.784;2023-09-12T02:03:41;70.13;;;58.77;;
3708;SDS011;1870;53.996;10.784;2023-09-12T02:06:07;70.80;;;62.30;;
3708;SDS011;1870;53.996;10.784;2023-09-12T02:08:33;67.40;;;60.10;;
3708;SDS011;1870;53.996;10.784;2023-09-12T02:10:58;66.83;;;59.43;;
3708;SDS011;1870;53.996;10.784;2023-09-12T02:13:24;66.70;;;59.43;;
3708;SDS011;1870;53.996;10.784;2023-09-12T02:15:50;65.77;;;58.87;;
3708;SDS011;1870;53.996;10.784;2023-09-12T02:18:23;67.47;;;60.50;;
3708;SDS011;1870;53.996;10.784;2023-09-12T02:20:48;68.27;;;60.97;;
3708;SDS011;1870;53.996;10.784;2023-09-12T02:23:14;67.90;;;59.60;;
3708;SDS011;1870;53.996;10.784;2023-09-12T02:25:40;59.97;;;53.03;;
3708;SDS011;1870;53.996;10.784;2023-09-12T02:28:05;60.50;;;54.10;;
3708;SDS011;1870;53.996;10.784;2023-09-12T02:30:31;60.07;;;53.90;;
3708;SDS011;1870;53.996;10.784;2023-09-12T02:32:56;58.00;;;51.50;;
3708;SDS011;1870;53.996;10.784;2023-09-12T02:35:22;54.53;;;48.70;;
3708;SDS011;1870;53.996;10.784;2023-09-12T02:37:48;61.27;;;51.50;;
3708;SDS011;1870;53.996;10.784;2023-09-12T02:40:13;61.00;;;52.00;;
3708;SDS011;1870;53.996;10.784;2023-09-12T02:42:39;57.97;;;49.30;;
3708;SDS011;1870;53.996;10.784;2023-09-12T02:45:05;53.70;;;46.23;;
3708;SDS011;1870;53.996;10.784;2023-09-12T02:47:31;56.00;;;45.80;;
3708;SDS011;1870;53.996;10.784;2023-09-12T02:49:57;53.50;;;47.77;;
3708;SDS011;1870;53.996;10.784;2023-09-12T02:52:22;59.77;;;53.27;;
3708;SDS011;1870;53.996;10.784;2023-09-12T02:54:48;65.30;;;58.30;;
3708;SDS011;1870;53.996;10.784;2023-09-12T02:57:14;68.77;;;61.87;;
3708;SDS011;1870;53.996;10.784;2023-09-12T02:59:39;77.63;;;63.30;;
3708;SDS011;1870;53.996;10.784;2023-09-12T03:02:05;77.40;;;69.13;;
3708;SDS011;1870;53.996;10.784;2023-09-12T03:04:35;77.43;;;69.47;;
3708;SDS011;1870;53.996;10.784;2023-09-12T03:07:01;79.53;;;69.60;;
3708;SDS011;1870;53.996;10.784;2023-09-12T03:09:27;79.67;;;71.20;;
3708;SDS011;1870;53.996;10.784;2023-09-12T03:11:53;81.10;;;70.10;;
3708;SDS011;1870;53.996;10.784;2023-09-12T03:14:18;86.80;;;70.07;;
3708;SDS011;1870;53.996;10.784;2023-09-12T03:16:44;86.83;;;70.80;;
3708;SDS011;1870;53.996;10.784;2023-09-12T03:19:09;82.80;;;70.20;;
3708;SDS011;1870;53.996;10.784;2023-09-12T03:21:35;85.97;;;70.40;;
3708;SDS011;1870;53.996;10.784;2023-09-12T03:24:01;88.70;;;66.67;;
3708;SDS011;1870;53.996;10.784;2023-09-12T03:26:26;87.03;;;68.10;;
3708;SDS011;1870;53.996;10.784;2023-09-12T03:28:52;91.60;;;67.77;;
3708;SDS011;1870;53.996;10.784;2023-09-12T03:31:18;85.97;;;64.97;;
3708;SDS011;1870;53.996;10.784;2023-09-12T03:33:44;92.17;;;66.43;;
3708;SDS011;1870;53.996;10.784;2023-09-12T03:36:14;89.00;;;67.10;;
3708;SDS011;1870;53.996;10.784;2023-09-12T03:38:42;90.03;;;65.30;;
3708;SDS011;1870;53.996;10.784;2023-09-12T03:41:08;87.67;;;66.93;;
3708;SDS011;1870;53.996;10.784;2023-09-12T03:43:34;89.20;;;68.40;;
3708;SDS011;1870;53.996;10.784;2023-09-12T03:46:01;91.97;;;69.57;;
3708;SDS011;1870;53.996;10.784;2023-09-12T03:48:28;90.47;;;73.90;;
3708;SDS011;1870;53.996;10.784;2023-09-12T03:50:55;84.80;;;66.70;;
3708;SDS011;1870;53.996;10.784;2023-09-12T03:53:21;90.03;;;67.17;;
3708;SDS011;1870;53.996;10.784;2023-09-12T03:55:47;83.20;;;67.67;;
3708;SDS011;1870;53.996;10.784;2023-09-12T03:58:12;84.27;;;64.70;;
3708;SDS011;1870;53.996;10.784;2023-09-12T04:00:38;92.87;;;68.23;;
3708;SDS011;1870;53.996;10.784;2023-09-12T04:03:04;87.03;;;69.90;;
3708;SDS011;1870;53.996;10.784;2023-09-12T04:05:29;98.33;;;67.90;;
3708;SDS011;1870;53.996;10.784;2023-09-12T04:07:55;99.27;;;69.80;;
3708;SDS011;1870;53.996;10.784;2023-09-12T04:10:21;89.00;;;66.77;;
3708;SDS011;1870;53.996;10.784;2023-09-12T04:12:46;83.40;;;63.77;;
3708;SDS011;1870;53.996;10.784;2023-09-12T04:15:12;100.20;;;73.10;;
3708;SDS011;1870;53.996;10.784;2023-09-12T04:17:38;97.03;;;66.00;;
3708;SDS011;1870;53.996;10.784;2023-09-12T04:20:04;82.33;;;65.13;;
3708;SDS011;1870;53.996;10.784;2023-09-12T04:22:30;92.63;;;64.17;;
3708;SDS011;1870;53.996;10.784;2023-09-12T04:24:55;93.67;;;62.70;;
3708;SDS011;1870;53.996;10.784;2023-09-12T04:27:21;95.27;;;62.50;;
3708;SDS011;1870;53.996;10.784;2023-09-12T04:29:47;86.17;;;60.50;;
3708;SDS011;1870;53.996;10.784;2023-09-12T04:32:12;89.93;;;59.07;;
3708;SDS011;1870;53.996;10.784;2023-09-12T04:34:38;94.13;;;63.47;;
3708;SDS011;1870;53.996;10.784;2023-09-12T04:37:03;102.47;;;66.70;;
3708;SDS011;1870;53.996;10.784;2023-09-12T04:39:30;99.07;;;63.40;;
3708;SDS011;1870;53.996;10.784;2023-09-12T04:41:56;93.43;;;64.33;;
3708;SDS011;1870;53.996;10.784;2023-09-12T04:44:22;93.93;;;66.07;;
3708;SDS011;1870;53.996;10.784;2023-09-12T04:46:47;86.47;;;64.87;;
3708;SDS011;1870;53.996;10.784;2023-09-12T04:49:13;87.40;;;63.20;;
3708;SDS011;1870;53.996;10.784;2023-09-12T04:51:39;84.33;;;62.40;;
3708;SDS011;1870;53.996;10.784;2023-09-12T04:54:05;75.70;;;57.87;;
3708;SDS011;1870;53.996;10.784;2023-09-12T04:56:31;87.70;;;60.53;;
3708;SDS011;1870;53.996;10.784;2023-09-12T04:58:56;80.00;;;58.70;;
3708;SDS011;1870;53.996;10.784;2023-09-12T05:01:22;74.67;;;57.23;;
3708;SDS011;1870;53.996;10.784;2023-09-12T05:03:47;82.93;;;57.83;;
3708;SDS011;1870;53.996;10.784;2023-09-12T05:06:13;77.33;;;55.70;;
3708;SDS011;1870;53.996;10.784;2023-09-12T05:08:39;91.07;;;60.57;;
3708;SDS011;1870;53.996;10.784;2023-09-12T05:11:05;66.90;;;55.30;;
3708;SDS011;1870;53.996;10.784;2023-09-12T05:13:30;75.30;;;55.33;;
3708;SDS011;1870;53.996;10.784;2023-09-12T05:15:56;66.47;;;52.50;;
3708;SDS011;1870;53.996;10.784;2023-09-12T05:18:23;70.30;;;53.70;;
3708;SDS011;1870;53.996;10.784;2023-09-12T05:20:49;64.90;;;50.07;;
3708;SDS011;1870;53.996;10.784;2023-09-12T05:23:14;71.70;;;52.77;;
3708;SDS011;1870;53.996;10.784;2023-09-12T05:25:40;72.50;;;51.43;;
3708;SDS011;1870;53.996;10.784;2023-09-12T05:28:06;67.90;;;51.67;;
3708;SDS011;1870;53.996;10.784;2023-09-12T05:30:32;68.13;;;52.67;;
3708;SDS011;1870;53.996;10.784;2023-09-12T05:32:58;75.17;;;51.57;;
3708;SDS011;1870;53.996;10.784;2023-09-12T05:35:23;61.27;;;50.80;;
3708;SDS011;1870;53.996;10.784;2023-09-12T05:37:50;68.80;;;51.80;;
3708;SDS011;1870;53.996;10.784;2023-09-12T05:40:16;63.63;;;52.00;;
3708;SDS011;1870;53.996;10.784;2023-09-12T05:42:43;80.23;;;52.97;;
3708;SDS011;1870;53.996;10.784;2023-09-12T05:45:09;59.50;;;48.00;;
3708;SDS011;1870;53.996;10.784;2023-09-12T05:47:35;64.47;;;48.70;;
3708;SDS011;1870;53.996;10.784;2023-09-12T05:50:01;70.30;;;51.00;;
3708;SDS011;1870;53.996;10.784;2023-09-12T05:52:30;70.40;;;52.27;;
3708;SDS011;1870;53.996;10.784;2023-09-12T05:54:56;74.00;;;53.20;;
3708;SDS011;1870;53.996;10.784;2023-09-12T05:57:22;66.57;;;52.40;;
3708;SDS011;1870;53.996;10.784;2023-09-12T05:59:48;70.97;;;56.20;;
3708;SDS011;1870;53.996;10.784;2023-09-12T06:02:14;65.00;;;55.97;;
3708;SDS011;1870;53.996;10.784;2023-09-12T06:04:40;60.73;;;54.47;;
3708;SDS011;1870;53.996;10.784;2023-09-12T06:07:05;62.50;;;55.57;;
3708;SDS011;1870;53.996;10.784;2023-09-12T06:09:31;66.80;;;55.63;;
3708;SDS011;1870;53.996;10.784;2023-09-12T06:11:56;65.23;;;51.70;;
3708;SDS011;1870;53.996;10.784;2023-09-12T06:14:23;59.47;;;53.37;;
3708;SDS011;1870;53.996;10.784;2023-09-12T06:16:49;56.87;;;51.00;;
3708;SDS011;1870;53.996;10.784;2023-09-12T06:19:15;61.53;;;53.47;;
3708;SDS011;1870;53.996;10.784;2023-09-12T06:21:41;59.33;;;50.73;;
3708;SDS011;1870;53.996;10.784;2023-09-12T06:24:14;55.20;;;49.07;;
3708;SDS011;1870;53.996;10.784;2023-09-12T06:26:41;58.30;;;51.63;;
3708;SDS011;1870;53.996;10.784;2023-09-12T06:29:06;54.53;;;48.47;;
3708;SDS011;1870;53.996;10.784;2023-09-12T06:31:32;54.20;;;46.23;;
3708;SDS011;1870;53.996;10.784;2023-09-12T06:33:58;58.33;;;47.03;;
3708;SDS011;1870;53.996;10.784;2023-09-12T06:36:24;57.93;;;47.73;;
3708;SDS011;1870;53.996;10.784;2023-09-12T06:38:51;54.30;;;48.53;;
3708;SDS011;1870;53.996;10.784;2023-09-12T06:41:20;55.37;;;48.10;;
3708;SDS011;1870;53.996;10.784;2023-09-12T06:43:46;57.43;;;48.80;;
3708;SDS011;1870;53.996;10.784;2023-09-12T06:46:11;53.57;;;48.00;;
3708;SDS011;1870;53.996;10.784;2023-09-12T06:48:37;53.33;;;47.10;;
3708;SDS011;1870;53.996;10.784;2023-09-12T06:51:07;55.73;;;49.63;;
3708;SDS011;1870;53.996;10.784;2023-09-12T06:53:34;62.60;;;49.70;;
3708;SDS011;1870;53.996;10.784;2023-09-12T06:56:01;56.00;;;49.97;;
3708;SDS011;1870;53.996;10.784;2023-09-12T06:58:29;57.57;;;51.37;;
3708;SDS011;1870;53.996;10.784;2023-09-12T07:00:54;54.17;;;48.27;;
3708;SDS011;1870;53.996;10.784;2023-09-12T07:03:20;54.23;;;46.43;;
3708;SDS011;1870;53.996;10.784;2023-09-12T07:05:46;54.80;;;48.80;;
3708;SDS011;1870;53.996;10.784;2023-09-12T07:08:13;55.90;;;50.10;;
3708;SDS011;1870;53.996;10.784;2023-09-12T07:10:45;58.00;;;47.43;;
3708;SDS011;1870;53.996;10.784;2023-09-12T07:13:11;52.83;;;47.07;;
3708;SDS011;1870;53.996;10.784;2023-09-12T07:15:37;54.63;;;46.70;;
3708;SDS011;1870;53.996;10.784;2023-09-12T07:18:02;50.17;;;43.17;;
3708;SDS011;1870;53.996;10.784;2023-09-12T07:20:29;49.00;;;43.10;;
3708;SDS011;1870;53.996;10.784;2023-09-12T07:22:54;45.23;;;40.33;;
3708;SDS011;1870;53.996;10.784;2023-09-12T07:25:20;50.37;;;43.20;;
3708;SDS011;1870;53.996;10.784;2023-09-12T07:27:48;50.60;;;43.60;;
3708;SDS011;1870;53.996;10.784;2023-09-12T07:30:15;43.30;;;38.50;;
3708;SDS011;1870;53.996;10.784;2023-09-12T07:32:41;44.50;;;36.40;;
3708;SDS011;1870;53.996;10.784;2023-09-12T07:35:07;43.77;;;36.87;;
3708;SDS011;1870;53.996;10.784;2023-09-12T07:37:32;49.70;;;39.03;;
3708;SDS011;1870;53.996;10.784;2023-09-12T07:39:58;42.97;;;36.83;;
3708;SDS011;1870;53.996;10.784;2023-09-12T07:42:24;41.47;;;36.07;;
3708;SDS011;1870;53.996;10.784;2023-09-12T07:44:50;47.40;;;39.50;;
3708;SDS011;1870;53.996;10.784;2023-09-12T07:47:16;43.10;;;34.33;;
3708;SDS011;1870;53.996;10.784;2023-09-12T07:49:42;48.47;;;39.77;;
3708;SDS011;1870;53.996;10.784;2023-09-12T07:52:08;40.67;;;34.07;;
3708;SDS011;1870;53.996;10.784;2023-09-12T07:54:33;43.60;;;33.40;;
3708;SDS011;1870;53.996;10.784;2023-09-12T07:56:59;48.10;;;38.00;;
3708;SDS011;1870;53.996;10.784;2023-09-12T07:59:25;46.43;;;34.67;;
3708;SDS011;1870;53.996;10.784;2023-09-12T08:01:50;42.97;;;36.20;;
3708;SDS011;1870;53.996;10.784;2023-09-12T08:04:16;46.37;;;37.60;;
3708;SDS011;1870;53.996;10.784;2023-09-12T08:06:42;41.33;;;36.87;;
3708;SDS011;1870;53.996;10.784;2023-09-12T08:09:09;47.97;;;37.63;;
3708;SDS011;1870;53.996;10.784;2023-09-12T08:11:35;47.90;;;35.83;;
3708;SDS011;1870;53.996;10.784;2023-09-12T08:14:01;46.73;;;36.90;;
3708;SDS011;1870;53.996;10.784;2023-09-12T08:16:26;44.07;;;38.03;;
3708;SDS011;1870;53.996;10.784;2023-09-12T08:18:52;52.43;;;39.50;;
3708;SDS011;1870;53.996;10.784;2023-09-12T08:21:18;47.83;;;37.50;;
3708;SDS011;1870;53.996;10.784;2023-09-12T08:23:45;51.70;;;42.40;;
3708;SDS011;1870;53.996;10.784;2023-09-12T08:26:11;42.37;;;36.43;;
3708;SDS011;1870;53.996;10.784;2023-09-12T08:28:36;48.80;;;36.93;;
3708;SDS011;1870;53.996;10.784;2023-09-12T08:31:02;41.93;;;33.77;;
3708;SDS011;1870;53.996;10.784;2023-09-12T08:33:28;46.07;;;35.20;;
3708;SDS011;1870;53.996;10.784;2023-09-12T08:35:53;43.43;;;36.43;;
3708;SDS011;1870;53.996;10.784;2023-09-12T08:38:19;49.60;;;38.20;;
3708;SDS011;1870;53.996;10.784;2023-09-12T08:40:48;51.70;;;36.80;;
3708;SDS011;1870;53.996;10.784;2023-09-12T08:43:15;46.63;;;35.10;;
3708;SDS011;1870;53.996;10.784;2023-09-12T08:45:41;51.50;;;35.80;;
3708;SDS011;1870;53.996;10.784;2023-09-12T08:48:10;46.10;;;35.90;;
3708;SDS011;1870;53.996;10.784;2023-09-12T08:50:37;47.50;;;34.67;;
3708;SDS011;1870;53.996;10.784;2023-09-12T08:53:03;44.27;;;30.87;;
3708;SDS011;1870;53.996;10.784;2023-09-12T08:55:29;41.43;;;32.30;;
3708;SDS011;1870;53.996;10.784;2023-09-12T08:57:58;40.90;;;31.50;;
3708;SDS011;1870;53.996;10.784;2023-09-12T09:00:24;44.73;;;31.80;;
3708;SDS011;1870;53.996;10.784;2023-09-12T09:02:52;42.20;;;31.70;;
3708;SDS011;1870;53.996;10.784;2023-09-12T09:05:18;46.93;;;32.83;;
3708;SDS011;1870;53.996;10.784;2023-09-12T09:07:46;40.97;;;32.00;;
3708;SDS011;1870;53.996;10.784;2023-09-12T09:10:17;42.43;;;31.50;;
3708;SDS011;1870;53.996;10.784;2023-09-12T09:12:44;38.47;;;30.70;;
3708;SDS011;1870;53.996;10.784;2023-09-12T09:15:21;44.33;;;30.83;;
3708;SDS011;1870;53.996;10.784;2023-09-12T09:17:47;37.97;;;29.57;;
3708;SDS011;1870;53.996;10.784;2023-09-12T09:20:22;43.03;;;29.37;;
3708;SDS011;1870;53.996;10.784;2023-09-12T09:23:13;39.60;;;28.27;;
3708;SDS011;1870;53.996;10.784;2023-09-12T09:25:41;36.93;;;28.33;;
3708;SDS011;1870;53.996;10.784;2023-09-12T09:28:20;32.43;;;26.60;;
3708;SDS011;1870;53.996;10.784;2023-09-12T09:30:47;33.20;;;26.60;;
3708;SDS011;1870;53.996;10.784;2023-09-12T09:33:16;39.50;;;25.37;;
3708;SDS011;1870;53.996;10.784;2023-09-12T09:35:42;36.47;;;26.97;;
3708;SDS011;1870;53.996;10.784;2023-09-12T09:38:10;28.33;;;23.20;;
3708;SDS011;1870;53.996;10.784;2023-09-12T09:40:41;31.30;;;25.57;;
3708;SDS011;1870;53.996;10.784;2023-09-12T09:43:07;33.27;;;25.70;;
3708;SDS011;1870;53.996;10.784;2023-09-12T09:45:33;34.00;;;24.27;;
3708;SDS011;1870;53.996;10.784;2023-09-12T09:48:08;29.87;;;22.70;;
3708;SDS011;1870;53.996;10.784;2023-09-12T09:50:34;30.17;;;23.97;;
3708;SDS011;1870;53.996;10.784;2023-09-12T09:53:03;27.57;;;22.37;;
3708;SDS011;1870;53.996;10.784;2023-09-12T09:55:33;24.93;;;19.60;;
3708;SDS011;1870;53.996;10.784;2023-09-12T09:57:59;26.17;;;20.87;;
3708;SDS011;1870;53.996;10.784;2023-09-12T10:00:25;25.07;;;20.77;;
3708;SDS011;1870;53.996;10.784;2023-09-12T10:02:53;25.53;;;20.57;;
3708;SDS011;1870;53.996;10.784;2023-09-12T10:05:21;25.00;;;18.70;;
3708;SDS011;1870;53.996;10.784;2023-09-12T10:07:48;24.20;;;19.47;;
3708;SDS011;1870;53.996;10.784;2023-09-12T10:10:18;33.93;;;20.97;;
3708;SDS011;1870;53.996;10.784;2023-09-12T10:12:53;26.13;;;19.50;;
3708;SDS011;1870;53.996;10.784;2023-09-12T10:15:22;28.03;;;18.63;;
3708;SDS011;1870;53.996;10.784;2023-09-12T10:17:53;26.63;;;19.63;;
3708;SDS011;1870;53.996;10.784;2023-09-12T10:20:42;26.00;;;19.77;;
3708;SDS011;1870;53.996;10.784;2023-09-12T10:25:52;25.20;;;18.90;;
3708;SDS011;1870;53.996;10.784;2023-09-12T10:28:19;25.10;;;19.17;;
3708;SDS011;1870;53.996;10.784;2023-09-12T10:30:46;23.77;;;19.20;;
3708;SDS011;1870;53.996;10.784;2023-09-12T10:33:14;26.30;;;20.23;;
3708;SDS011;1870;53.996;10.784;2023-09-12T10:35:41;22.03;;;18.70;;
3708;SDS011;1870;53.996;10.784;2023-09-12T10:38:08;25.33;;;18.87;;
3708;SDS011;1870;53.996;10.784;2023-09-12T10:40:37;25.30;;;17.10;;
3708;SDS011;1870;53.996;10.784;2023-09-12T10:43:05;24.03;;;17.27;;
3708;SDS011;1870;53.996;10.784;2023-09-12T10:45:36;23.37;;;16.70;;
3708;SDS011;1870;53.996;10.784;2023-09-12T10:48:04;24.33;;;16.47;;
3708;SDS011;1870;53.996;10.784;2023-09-12T10:50:30;21.23;;;16.23;;
3708;SDS011;1870;53.996;10.784;2023-09-12T10:52:56;16.50;;;14.60;;
3708;SDS011;1870;53.996;10.784;2023-09-12T10:55:36;19.80;;;16.87;;
3708;SDS011;1870;53.996;10.784;2023-09-12T10:58:09;21.93;;;16.43;;
3708;SDS011;1870;53.996;10.784;2023-09-12T11:00:39;24.43;;;16.23;;
3708;SDS011;1870;53.996;10.784;2023-09-12T11:06:01;15.90;;;14.20;;
3708;SDS011;1870;53.996;10.784;2023-09-12T11:08:29;14.90;;;12.87;;
3708;SDS011;1870;53.996;10.784;2023-09-12T11:11:42;19.90;;;13.63;;
3708;SDS011;1870;53.996;10.784;2023-09-12T11:14:05;14.20;;;12.30;;
3708;SDS011;1870;53.996;10.784;2023-09-12T11:16:31;18.63;;;13.23;;
3708;SDS011;1870;53.996;10.784;2023-09-12T11:21:52;14.27;;;11.90;;
3708;SDS011;1870;53.996;10.784;2023-09-12T11:24:19;16.20;;;14.07;;
3708;SDS011;1870;53.996;10.784;2023-09-12T11:27:01;15.17;;;13.47;;
3708;SDS011;1870;53.996;10.784;2023-09-12T11:29:37;14.00;;;12.17;;
3708;SDS011;1870;53.996;10.784;2023-09-12T11:32:04;17.07;;;12.27;;
3708;SDS011;1870;53.996;10.784;2023-09-12T11:35:04;16.73;;;14.00;;
3708;SDS011;1870;53.996;10.784;2023-09-12T11:37:22;15.50;;;13.40;;
3708;SDS011;1870;53.996;10.784;2023-09-12T11:39:51;22.33;;;16.50;;
3708;SDS011;1870;53.996;10.784;2023-09-12T11:42:18;16.97;;;14.70;;
3708;SDS011;1870;53.996;10.784;2023-09-12T11:44:43;23.10;;;15.50;;
3708;SDS011;1870;53.996;10.784;2023-09-12T11:47:12;24.20;;;16.10;;
3708;SDS011;1870;53.996;10.784;2023-09-12T11:49:39;14.17;;;12.63;;
3708;SDS011;1870;53.996;10.784;2023-09-12T11:52:15;16.10;;;14.37;;
3708;SDS011;1870;53.996;10.784;2023-09-12T11:54:44;15.33;;;13.60;;
3708;SDS011;1870;53.996;10.784;2023-09-12T11:57:13;16.77;;;14.13;;
3708;SDS011;1870;53.996;10.784;2023-09-12T11:59:40;20.33;;;14.10;;
3708;SDS011;1870;53.996;10.784;2023-09-12T12:02:10;17.13;;;15.23;;
3708;SDS011;1870;53.996;10.784;2023-09-12T12:04:36;18.83;;;15.00;;
3708;SDS011;1870;53.996;10.784;2023-09-12T12:07:03;15.50;;;13.90;;
3708;SDS011;1870;53.996;10.784;2023-09-12T12:09:29;17.23;;;13.47;;
3708;SDS011;1870;53.996;10.784;2023-09-12T12:11:55;17.80;;;13.53;;
3708;SDS011;1870;53.996;10.784;2023-09-12T12:14:25;17.10;;;12.43;;
3708;SDS011;1870;53.996;10.784;2023-09-12T12:16:52;13.40;;;12.10;;
3708;SDS011;1870;53.996;10.784;2023-09-12T12:19:18;12.63;;;11.20;;
3708;SDS011;1870;53.996;10.784;2023-09-12T12:21:43;13.33;;;11.40;;
3708;SDS011;1870;53.996;10.784;2023-09-12T12:24:10;14.33;;;12.50;;
3708;SDS011;1870;53.996;10.784;2023-09-12T12:26:41;14.47;;;10.80;;
3708;SDS011;1870;53.996;10.784;2023-09-12T12:29:08;14.67;;;13.10;;
3708;SDS011;1870;53.996;10.784;2023-09-12T12:31:35;14.53;;;11.67;;
3708;SDS011;1870;53.996;10.784;2023-09-12T12:34:01;14.23;;;11.30;;
3708;SDS011;1870;53.996;10.784;2023-09-12T12:36:27;15.93;;;13.17;;
3708;SDS011;1870;53.996;10.784;2023-09-12T12:38:52;13.50;;;12.17;;
3708;SDS011;1870;53.996;10.784;2023-09-12T12:41:22;14.00;;;12.70;;
3708;SDS011;1870;53.996;10.784;2023-09-12T12:43:52;13.00;;;11.70;;
3708;SDS011;1870;53.996;10.784;2023-09-12T12:46:20;11.73;;;10.37;;
3708;SDS011;1870;53.996;10.784;2023-09-12T12:48:49;11.20;;;10.10;;
3708;SDS011;1870;53.996;10.784;2023-09-12T12:51:28;11.73;;;10.70;;
3708;SDS011;1870;53.996;10.784;2023-09-12T12:53:55;10.97;;;9.87;;
3708;SDS011;1870;53.996;10.784;2023-09-12T12:56:29;13.03;;;11.90;;
3708;SDS011;1870;53.996;10.784;2023-09-12T12:58:55;11.80;;;9.90;;
3708;SDS011;1870;53.996;10.784;2023-09-12T13:01:25;12.40;;;11.10;;
3708;SDS011;1870;53.996;10.784;2023-09-12T13:03:51;13.83;;;11.07;;
3708;SDS011;1870;53.996;10.784;2023-09-12T13:06:18;11.77;;;10.77;;
3708;SDS011;1870;53.996;10.784;2023-09-12T13:08:45;10.40;;;9.40;;
3708;SDS011;1870;53.996;10.784;2023-09-12T13:11:12;9.93;;;8.93;;
3708;SDS011;1870;53.996;10.784;2023-09-12T13:13:39;10.90;;;9.60;;
3708;SDS011;1870;53.996;10.784;2023-09-12T13:16:05;11.00;;;9.80;;
3708;SDS011;1870;53.996;10.784;2023-09-12T13:18:34;9.73;;;8.73;;
3708;SDS011;1870;53.996;10.784;2023-09-12T13:21:01;10.23;;;9.27;;
3708;SDS011;1870;53.996;10.784;2023-09-12T13:23:27;12.83;;;9.10;;
3708;SDS011;1870;53.996;10.784;2023-09-12T13:25:53;9.30;;;8.40;;
3708;SDS011;1870;53.996;10.784;2023-09-12T13:28:19;8.63;;;7.83;;
3708;SDS011;1870;53.996;10.784;2023-09-12T13:30:45;9.63;;;8.20;;
3708;SDS011;1870;53.996;10.784;2023-09-12T13:33:12;11.10;;;8.63;;
3708;SDS011;1870;53.996;10.784;2023-09-12T13:35:41;8.73;;;7.93;;
3708;SDS011;1870;53.996;10.784;2023-09-12T13:38:07;10.20;;;8.63;;
3708;SDS011;1870;53.996;10.784;2023-09-12T13:40:39;17.03;;;15.77;;
3708;SDS011;1870;53.996;10.784;2023-09-12T13:43:05;9.30;;;8.43;;
3708;SDS011;1870;53.996;10.784;2023-09-12T13:45:31;8.33;;;7.53;;
3708;SDS011;1870;53.996;10.784;2023-09-12T13:47:58;9.67;;;8.67;;
3708;SDS011;1870;53.996;10.784;2023-09-12T13:50:24;9.27;;;8.37;;
3708;SDS011;1870;53.996;10.784;2023-09-12T13:52:53;10.37;;;9.47;;
3708;SDS011;1870;53.996;10.784;2023-09-12T13:55:20;10.10;;;9.20;;
3708;SDS011;1870;53.996;10.784;2023-09-12T13:57:45;10.57;;;9.63;;
3708;SDS011;1870;53.996;10.784;2023-09-12T14:00:11;15.50;;;9.70;;
3708;SDS011;1870;53.996;10.784;2023-09-12T14:02:39;10.03;;;9.13;;
3708;SDS011;1870;53.996;10.784;2023-09-12T14:05:05;10.20;;;9.30;;
3708;SDS011;1870;53.996;10.784;2023-09-12T14:07:30;10.23;;;9.23;;
3708;SDS011;1870;53.996;10.784;2023-09-12T14:09:56;15.00;;;13.57;;
3708;SDS011;1870;53.996;10.784;2023-09-12T14:12:22;20.23;;;18.10;;
3708;SDS011;1870;53.996;10.784;2023-09-12T14:14:48;25.87;;;19.97;;
3708;SDS011;1870;53.996;10.784;2023-09-12T14:17:14;19.50;;;17.50;;
3708;SDS011;1870;53.996;10.784;2023-09-12T14:19:40;19.30;;;17.40;;
3708;SDS011;1870;53.996;10.784;2023-09-12T14:22:06;21.40;;;19.00;;
3708;SDS011;1870;53.996;10.784;2023-09-12T14:24:32;22.17;;;19.60;;
3708;SDS011;1870;53.996;10.784;2023-09-12T14:26:57;22.03;;;19.83;;
3708;SDS011;1870;53.996;10.784;2023-09-12T14:29:25;24.47;;;19.70;;
3708;SDS011;1870;53.996;10.784;2023-09-12T14:31:53;21.10;;;19.00;;
3708;SDS011;1870;53.996;10.784;2023-09-12T14:34:25;25.13;;;22.53;;
3708;SDS011;1870;53.996;10.784;2023-09-12T14:36:55;22.47;;;20.07;;
3708;SDS011;1870;53.996;10.784;2023-09-12T14:39:21;21.47;;;19.27;;
3708;SDS011;1870;53.996;10.784;2023-09-12T14:41:48;23.30;;;20.80;;
3708;SDS011;1870;53.996;10.784;2023-09-12T14:44:31;25.03;;;21.47;;
3708;SDS011;1870;53.996;10.784;2023-09-12T14:46:58;24.23;;;20.63;;
3708;SDS011;1870;53.996;10.784;2023-09-12T14:49:24;24.87;;;22.33;;
3708;SDS011;1870;53.996;10.784;2023-09-12T14:51:50;23.07;;;20.63;;